Time;durP1;ratioP1;P1;durP2;ratioP2;P2;SDS_P1;SDS_P2;PMS_P1;PMS_P2;Temp;Humidity;BMP_temperature;BMP_pressure;BME280_temperature;BME280_humidity;BME280_pressure;Samples;Min_cycle;Max_cycle;Signal;HPM_P1;HPM_P2
2021/05/18 00:00:43;;;;;;;4.20;3.80;;;;;;;9.86;79.04;95951.79;1758956;81;26462;-86
2021/05/18 00:03:14;;;;;;;5.60;4.05;;;;;;;9.87;79.10;95957.47;1759029;81;25711;-86
2021/05/18 00:05:46;;;;;;;7.85;4.78;;;;;;;9.87;79.16;95958.82;1759086;81;27409;-86
2021/05/18 00:08:13;;;;;;;5.65;4.42;;;;;;;9.90;79.27;95948.34;1730072;81;26317;-86
2021/05/18 00:13:31;;;;;;;5.60;3.70;;;;;;;9.90;79.26;95955.09;1676661;84;26587;-87
2021/05/18 00:16:00;;;;;;;8.05;4.40;;;;;;;9.85;79.10;95950.16;1713059;81;25653;-86
2021/05/18 00:18:28;;;;;;;5.22;3.98;;;;;;;9.88;79.20;95954.53;1721351;81;27577;-86
2021/05/18 00:20:55;;;;;;;5.08;3.80;;;;;;;9.94;79.24;95959.47;1686621;83;25895;-87
2021/05/18 00:23:22;;;;;;;5.08;3.70;;;;;;;9.93;79.17;95952.45;1675963;81;25621;-85
2021/05/18 00:25:49;;;;;;;5.00;3.42;;;;;;;9.93;79.18;95949.22;1705327;81;25668;-85
2021/05/18 00:28:16;;;;;;;4.08;3.00;;;;;;;9.96;79.20;95953.31;1683042;81;26348;-85
2021/05/18 00:30:43;;;;;;;4.53;3.47;;;;;;;9.93;79.03;95951.92;1643590;84;27583;-85
2021/05/18 00:33:20;;;;;;;4.22;3.30;;;;;;;9.89;78.97;95956.70;1679232;82;25619;-85
2021/05/18 00:35:48;;;;;;;6.62;3.17;;;;;;;9.84;79.02;95954.72;1686270;82;25710;-86
2021/05/18 00:38:18;;;;;;;3.98;2.62;;;;;;;9.78;78.86;95955.67;1686777;82;25798;-86
2021/05/18 00:40:47;;;;;;;6.10;2.83;;;;;;;9.76;78.96;95948.38;1676885;82;25698;-88
2021/05/18 00:43:14;;;;;;;3.77;2.70;;;;;;;9.71;78.96;95951.80;1696976;82;27348;-86
2021/05/18 00:45:48;;;;;;;6.47;2.80;;;;;;;9.65;79.00;95946.03;1676835;82;25730;-85
2021/05/18 00:48:16;;;;;;;4.45;2.72;;;;;;;9.59;79.04;95949.67;1676893;82;26143;-88
2021/05/18 00:50:48;;;;;;;4.28;2.75;;;;;;;9.58;79.07;95952.61;1676667;82;26563;-85
2021/05/18 00:53:16;;;;;;;5.62;2.65;;;;;;;9.53;79.06;95956.03;1676951;82;25732;-86
2021/05/18 00:55:56;;;;;;;5.85;3.02;;;;;;;9.49;79.17;95950.83;1676971;83;27604;-87
2021/05/18 00:58:27;;;;;;;3.80;2.37;;;;;;;9.50;79.33;95957.86;1676312;82;25630;-87
2021/05/18 01:01:07;;;;;;;6.00;2.83;;;;;;;9.48;79.37;95958.62;1677035;83;25210;-85
2021/05/18 01:03:36;;;;;;;4.40;3.02;;;;;;;9.48;79.34;95961.84;1696940;82;26181;-86
2021/05/18 01:08:54;;;;;;;2.95;2.20;;;;;;;9.38;79.32;95975.92;1707658;82;27536;-86
2021/05/18 01:11:24;;;;;;;5.08;3.00;;;;;;;9.39;79.39;95974.88;1694380;83;25659;-87
2021/05/18 01:13:57;;;;;;;4.08;2.67;;;;;;;9.39;79.44;95973.00;1676966;83;25603;-87
2021/05/18 01:16:28;;;;;;;6.70;2.40;;;;;;;9.41;79.43;95978.68;1691967;83;25927;-86
2021/05/18 01:18:55;;;;;;;3.90;2.62;;;;;;;9.39;79.52;95986.99;1679885;83;25646;-85
2021/05/18 01:21:24;;;;;;;5.40;2.60;;;;;;;9.37;79.47;95979.14;1676827;83;27454;-87
2021/05/18 01:23:51;;;;;;;3.70;2.75;;;;;;;9.40;79.43;95984.59;1676741;83;26954;-85
2021/05/18 01:26:19;;;;;;;2.90;2.15;;;;;;;9.37;79.28;95976.45;1676909;83;25619;-85
2021/05/18 01:28:45;;;;;;;4.25;2.20;;;;;;;9.39;79.26;95982.95;1705944;83;25746;-87
2021/05/18 01:31:21;;;;;;;4.62;2.30;;;;;;;9.40;79.36;95983.24;1677068;83;26118;-85
2021/05/18 01:33:47;;;;;;;3.05;2.75;;;;;;;9.41;79.34;95983.53;1705962;83;27897;-84
2021/05/18 01:36:16;;;;;;;4.97;2.67;;;;;;;9.42;79.31;95981.11;1676786;83;25682;-86
2021/05/18 01:38:53;;;;;;;2.52;2.33;;;;;;;9.42;79.20;95982.45;1685926;83;25684;-86
2021/05/18 01:44:00;;;;;;;2.87;2.47;;;;;;;9.46;79.30;95980.93;1676788;83;25633;-84
2021/05/18 01:46:28;;;;;;;4.75;2.08;;;;;;;9.42;79.08;95977.06;1684253;83;27393;-86
2021/05/18 01:49:02;;;;;;;3.70;1.80;;;;;;;9.39;79.17;95976.22;1687700;83;25596;-87
2021/05/18 01:51:42;;;;;;;2.30;1.92;;;;;;;9.34;79.26;95977.45;1677072;83;25594;-86
2021/05/18 01:54:16;;;;;;;2.90;2.00;;;;;;;9.31;79.12;95979.27;1677150;83;25717;-86
2021/05/18 01:59:14;;;;;;;3.05;1.80;;;;;;;9.27;79.22;95985.67;1677049;83;27419;-83
2021/05/18 02:01:43;;;;;;;2.17;1.82;;;;;;;9.31;79.26;95990.03;1676767;83;25274;-85
2021/05/18 02:04:31;;;;;;;4.25;1.85;;;;;;;9.31;79.25;95995.42;1677098;83;25604;-85
2021/05/18 02:07:01;;;;;;;2.60;2.00;;;;;;;9.33;79.31;95994.66;1718219;83;25678;-83
2021/05/18 02:09:28;;;;;;;2.12;1.80;;;;;;;9.34;79.39;96005.20;1691312;82;25808;-84
2021/05/18 02:11:54;;;;;;;2.08;1.87;;;;;;;9.37;79.33;95999.87;1702708;83;28363;-85
2021/05/18 02:14:28;;;;;;;2.85;1.62;;;;;;;9.37;79.29;96003.91;1688835;83;25690;-85
2021/05/18 02:16:54;;;;;;;2.95;1.80;;;;;;;9.34;79.32;96012.45;1706755;83;25837;-85
2021/05/18 02:22:12;;;;;;;2.35;1.60;;;;;;;9.37;79.38;96018.72;1692477;83;25639;-85
2021/05/18 02:24:45;;;;;;;4.12;2.00;;;;;;;9.36;79.44;96025.16;1697851;83;27368;-85
2021/05/18 02:26:58;;;;;;;2.42;1.70;;;;;;;9.37;79.48;96029.49;1676540;83;25893;-84
2021/05/18 02:29:24;;;;;;;1.62;1.52;;;;;;;9.34;79.56;96032.13;1694703;83;25674;-84
2021/05/18 02:31:54;;;;;;;3.98;1.52;;;;;;;9.34;79.60;96039.38;1700724;83;26517;-85
2021/05/18 02:34:19;;;;;;;6.03;1.80;;;;;;;9.30;79.61;96041.72;1688436;83;25656;-85
2021/05/18 02:36:46;;;;;;;2.40;1.70;;;;;;;9.29;79.57;96048.72;1712216;83;27420;-86
2021/05/18 02:39:13;;;;;;;3.12;1.62;;;;;;;9.29;79.59;96052.76;1674305;83;25618;-87
2021/05/18 02:41:39;;;;;;;1.65;1.22;;;;;;;9.26;79.58;96059.95;1674356;83;25569;-86
2021/05/18 02:44:20;;;;;;;1.95;1.60;;;;;;;9.28;79.58;96064.58;1700966;83;26455;-85
2021/05/18 02:49:26;;;;;;;3.10;1.60;;;;;;;9.29;79.50;96066.22;1705297;83;27341;-85
2021/05/18 02:51:52;;;;;;;1.40;1.30;;;;;;;9.27;79.41;96056.20;1719001;83;25643;-86
2021/05/18 02:54:25;;;;;;;1.62;1.52;;;;;;;9.23;79.48;96067.14;1687378;83;25713;-86
2021/05/18 02:59:19;;;;;;;1.72;1.27;;;;;;;9.22;79.71;96083.01;1674402;83;25770;-87
2021/05/18 03:02:00;;;;;;;2.35;1.85;;;;;;;9.21;79.78;96086.22;1684715;83;28246;-86
2021/05/18 03:04:28;;;;;;;2.00;1.55;;;;;;;9.20;79.87;96078.38;1686574;83;26037;-87
2021/05/18 03:06:56;;;;;;;5.45;1.55;;;;;;;9.18;79.89;96079.13;1687012;83;25635;-85
2021/05/18 03:09:24;;;;;;;3.12;1.90;;;;;;;9.15;79.90;96076.94;1702075;83;26378;-87
2021/05/18 03:11:54;;;;;;;2.62;1.50;;;;;;;9.15;79.94;96090.39;1717280;82;25724;-87
2021/05/18 03:14:22;;;;;;;2.70;1.75;;;;;;;9.18;80.02;96092.59;1712466;82;27585;-85
2021/05/18 03:16:49;;;;;;;2.67;1.72;;;;;;;9.20;79.96;96091.31;1748371;82;25659;-86
2021/05/18 03:19:16;;;;;;;1.77;1.47;;;;;;;9.23;80.02;96096.23;1748571;81;25699;-87
2021/05/18 03:21:44;;;;;;;2.52;1.60;;;;;;;9.28;80.06;96099.59;1748609;82;26373;-87
2021/05/18 03:24:12;;;;;;;1.87;1.40;;;;;;;9.32;80.05;96099.39;1748625;82;25550;-87
2021/05/18 03:26:47;;;;;;;1.90;1.67;;;;;;;9.30;80.00;96105.53;1748427;82;27402;-87
2021/05/18 03:29:20;;;;;;;2.02;1.37;;;;;;;9.29;80.04;96095.84;1738261;81;25533;-86
2021/05/18 03:34:36;;;;;;;3.08;1.42;;;;;;;9.30;80.10;96098.80;1748423;82;26474;-86
2021/05/18 03:37:19;;;;;;;1.72;1.42;;;;;;;9.31;80.09;96108.52;1748443;82;25671;-87
2021/05/18 03:39:43;;;;;;;1.72;1.62;;;;;;;9.38;80.11;96109.23;1746991;82;27346;-87
2021/05/18 03:42:18;;;;;;;4.00;1.92;;;;;;;9.40;80.10;96111.17;1748424;81;25660;-87
2021/05/18 03:52:47;;;;;;;2.60;1.60;;;;;;;9.42;80.03;96112.28;1748425;82;27308;-86
2021/05/18 04:03:50;;;;;;;1.15;1.10;;;;;;;9.37;80.10;96134.00;1729609;82;25253;-87
2021/05/18 04:11:50;;;;;;;1.55;1.35;;;;;;;9.49;80.06;96142.08;1747026;82;25573;-86
2021/05/18 04:19:19;;;;;;;2.37;1.87;;;;;;;9.43;79.98;96148.38;1746761;82;28167;-86
2021/05/18 04:59:02;;;;;;;5.62;1.67;;;;;;;9.60;80.34;96157.41;1684193;83;27449;-88
2021/05/18 05:01:43;;;;;;;1.85;1.30;;;;;;;9.64;80.32;96155.89;1674793;83;25734;-87
2021/05/18 05:04:11;;;;;;;1.50;1.40;;;;;;;9.67;80.32;96154.05;1687159;83;25644;-87
2021/05/18 05:09:33;;;;;;;1.60;1.47;;;;;;;9.73;80.16;96163.08;1695236;83;25650;-87
2021/05/18 05:14:41;;;;;;;2.25;1.40;;;;;;;9.72;80.20;96159.56;1708648;83;26238;-86
2021/05/18 05:17:08;;;;;;;1.77;1.35;;;;;;;9.74;80.16;96160.16;1694755;83;25558;-87
2021/05/18 05:19:35;;;;;;;1.90;1.50;;;;;;;9.72;80.13;96156.88;1708433;82;25774;-86
2021/05/18 05:22:04;;;;;;;2.80;1.98;;;;;;;9.73;80.16;96163.91;1707862;83;25703;-86
2021/05/18 05:24:33;;;;;;;3.95;3.00;;;;;;;9.67;80.09;96159.44;1707110;83;27265;-85
2021/05/18 05:27:01;;;;;;;4.25;3.40;;;;;;;9.67;80.17;96159.44;1697544;83;25986;-86
2021/05/18 05:29:28;;;;;;;5.35;3.55;;;;;;;9.72;80.16;96158.22;1702144;83;25716;-86
2021/05/18 05:31:56;;;;;;;8.13;3.77;;;;;;;9.72;80.21;96162.27;1707391;83;26426;-85
2021/05/18 05:34:23;;;;;;;3.52;2.77;;;;;;;9.76;80.29;96158.58;1701164;83;25624;-86
2021/05/18 05:36:49;;;;;;;4.65;2.70;;;;;;;9.79;80.28;96165.34;1708637;83;27406;-86
2021/05/18 05:41:47;;;;;;;10.25;4.65;;;;;;;9.87;80.30;96167.70;1708776;83;25628;-87
2021/05/18 05:44:14;;;;;;;5.08;3.10;;;;;;;9.84;80.31;96164.12;1708554;83;25840;-86
2021/05/18 05:46:40;;;;;;;3.85;2.30;;;;;;;9.84;80.33;96168.16;1702504;83;26340;-86
2021/05/18 05:49:07;;;;;;;5.30;2.65;;;;;;;9.91;80.40;96168.31;1704532;83;27299;-87
2021/05/18 05:51:33;;;;;;;2.37;1.82;;;;;;;9.98;80.31;96169.02;1708572;82;25608;-86
2021/05/18 05:54:00;;;;;;;3.00;1.90;;;;;;;10.01;80.13;96174.47;1707071;83;25648;-86
2021/05/18 05:56:29;;;;;;;3.40;2.17;;;;;;;10.00;80.02;96176.88;1706483;83;26623;-87
2021/05/18 05:58:59;;;;;;;2.60;2.40;;;;;;;10.03;80.03;96177.73;1707178;83;25688;-87
2021/05/18 06:01:25;;;;;;;3.83;2.45;;;;;;;10.08;80.11;96180.55;1708269;83;28044;-87
2021/05/18 06:03:51;;;;;;;2.80;2.17;;;;;;;10.12;80.13;96180.37;1707342;83;25806;-86
2021/05/18 06:06:18;;;;;;;3.02;2.65;;;;;;;10.08;80.14;96182.71;1707876;83;25672;-87
2021/05/18 06:08:46;;;;;;;4.20;3.20;;;;;;;10.08;80.14;96180.55;1705934;83;26137;-87
2021/05/18 06:11:17;;;;;;;5.75;3.30;;;;;;;10.12;80.27;96187.11;1700505;82;25613;-87
2021/05/18 06:13:54;;;;;;;4.72;2.75;;;;;;;10.16;80.24;96193.64;1703318;82;28260;-87
2021/05/18 06:35:38;;;;;;;3.58;2.37;;;;;;;10.27;79.71;96200.92;1703017;82;25820;-86
2021/05/18 06:37:50;;;;;;;5.15;2.12;;;;;;;10.26;79.78;96202.53;1712215;82;25645;-86
2021/05/18 06:48:10;;;;;;;3.70;2.25;;;;;;;10.28;79.66;96205.25;1699943;82;25701;-87
2021/05/18 06:50:37;;;;;;;3.10;2.30;;;;;;;10.33;79.56;96212.64;1717776;82;25213;-86
2021/05/18 06:53:04;;;;;;;4.97;2.35;;;;;;;10.37;79.53;96215.16;1721725;82;27426;-86
2021/05/18 06:55:33;;;;;;;2.65;2.20;;;;;;;10.39;79.38;96214.38;1699446;82;25614;-86
2021/05/18 06:58:07;;;;;;;3.10;2.30;;;;;;;10.33;79.33;96211.30;1699501;82;25663;-86
2021/05/18 07:00:30;;;;;;;6.30;3.90;;;;;;;10.35;79.45;96220.80;1698131;82;26495;-87
2021/05/18 07:02:58;;;;;;;5.30;2.98;;;;;;;10.34;79.59;96219.16;1710869;82;25246;-87
2021/05/18 07:10:21;;;;;;;7.58;3.87;;;;;;;10.31;79.79;96230.41;1664321;82;25646;-86
2021/05/18 07:12:48;;;;;;;4.12;2.65;;;;;;;10.31;79.75;96219.63;1707580;83;25906;-87
2021/05/18 07:15:15;;;;;;;2.70;2.37;;;;;;;10.32;79.87;96219.91;1708548;82;25727;-86
2021/05/18 07:17:42;;;;;;;4.67;2.72;;;;;;;10.33;79.96;96217.52;1708602;83;27300;-87
2021/05/18 07:20:09;;;;;;;3.30;2.47;;;;;;;10.38;79.94;96218.98;1706351;82;25729;-88
2021/05/18 07:22:36;;;;;;;3.12;2.37;;;;;;;10.41;79.93;96219.83;1708620;83;25717;-86
2021/05/18 07:25:04;;;;;;;2.62;2.33;;;;;;;10.45;79.73;96212.91;1708600;83;26522;-87
2021/05/18 07:27:31;;;;;;;2.85;2.62;;;;;;;10.50;79.59;96224.86;1708711;82;25631;-88
2021/05/18 07:29:57;;;;;;;13.90;6.65;;;;;;;10.52;79.57;96224.89;1706517;82;28046;-88
2021/05/18 07:32:25;;;;;;;12.78;4.70;;;;;;;10.53;79.68;96228.41;1707559;82;25726;-90
2021/05/18 07:34:52;;;;;;;12.40;5.87;;;;;;;10.52;79.64;96229.47;1705627;83;25789;-83
2021/05/18 07:37:18;;;;;;;34.03;15.60;;;;;;;10.47;79.56;96232.91;1707674;83;25717;-87
2021/05/18 07:39:45;;;;;;;21.82;12.73;;;;;;;10.51;79.57;96235.92;1715031;82;25892;-88
2021/05/18 07:42:12;;;;;;;14.33;8.40;;;;;;;10.54;79.57;96239.50;1718496;82;27322;-88
2021/05/18 07:44:38;;;;;;;10.18;6.47;;;;;;;10.54;79.77;96241.67;1705774;82;25779;-86
2021/05/18 07:47:05;;;;;;;3.12;2.80;;;;;;;10.58;79.81;96241.48;1707303;83;25856;-87
2021/05/18 07:49:36;;;;;;;3.65;2.30;;;;;;;10.60;79.66;96233.16;1708483;82;25599;-87
2021/05/18 08:05:31;;;;;;;2.42;1.90;;;;;;;10.61;79.81;96250.99;1706806;83;25811;-87
2021/05/18 08:07:56;;;;;;;2.98;1.62;;;;;;;10.65;79.89;96256.18;1708150;83;28104;-86
2021/05/18 08:10:32;;;;;;;1.90;1.70;;;;;;;10.70;79.88;96254.42;1715035;82;25638;-87
2021/05/18 08:12:52;;;;;;;3.50;2.27;;;;;;;10.75;79.68;96249.63;1695126;84;25646;-86
2021/05/18 08:18:27;;;;;;;;;;;;;;;10.83;79.57;96258.72;1710633;83;25774;-86
2021/05/18 10:26:54;;;;;;;16.00;13.58;;;;;;;11.30;78.41;96351.16;1726931;81;27353;-88
2021/05/18 10:34:48;;;;;;;16.75;12.85;;;;;;;11.41;78.46;96352.17;1752546;81;25689;-88
2021/05/18 10:37:27;;;;;;;5.28;4.42;;;;;;;11.40;78.33;96355.93;1739612;81;25675;-91
2021/05/18 10:40:25;;;;;;;4.95;4.45;;;;;;;11.36;78.01;96361.52;1749374;81;27420;-89
2021/05/18 10:43:28;;;;;;;9.78;8.78;;;;;;;11.33;77.99;96360.14;1712193;81;25722;-86
2021/05/18 10:46:01;;;;;;;7.03;5.70;;;;;;;11.28;78.10;96368.67;1710985;82;25671;-88
2021/05/18 10:48:36;;;;;;;5.30;4.78;;;;;;;11.22;78.13;96365.59;1722811;82;26626;-87
2021/05/18 10:51:34;;;;;;;5.67;4.83;;;;;;;11.21;78.28;96370.70;1721253;82;25618;-88
2021/05/18 10:54:18;;;;;;;6.75;4.92;;;;;;;11.26;78.47;96374.84;1705114;82;27370;-88
2021/05/18 10:56:59;;;;;;;5.87;5.37;;;;;;;11.30;78.43;96369.25;1705161;82;25640;-88
2021/05/18 10:59:37;;;;;;;6.72;5.42;;;;;;;11.29;78.53;96371.66;1751869;81;25732;-87
2021/05/18 11:02:11;;;;;;;6.70;5.40;;;;;;;11.31;78.38;96374.95;1738904;81;25855;-88
2021/05/18 11:04:45;;;;;;;6.33;5.37;;;;;;;11.33;78.46;96379.59;1719550;81;25647;-86
2021/05/18 11:07:16;;;;;;;8.88;6.42;;;;;;;11.38;78.24;96377.78;1756187;81;27403;-90
2021/05/18 11:09:43;;;;;;;6.58;5.72;;;;;;;11.41;78.36;96381.89;1743379;82;25767;-89
2021/05/18 11:12:16;;;;;;;6.40;5.80;;;;;;;11.41;78.32;96381.36;1744983;82;25589;-90
2021/05/18 11:15:00;;;;;;;8.65;6.62;;;;;;;11.43;78.13;96383.30;1745595;82;26508;-88
2021/05/18 11:17:33;;;;;;;7.62;6.83;;;;;;;11.42;78.15;96387.59;1746239;81;25223;-87
2021/05/18 11:20:23;;;;;;;8.33;7.22;;;;;;;11.42;78.18;96386.23;1746260;82;28114;-87
2021/05/18 11:26:09;;;;;;;9.38;7.15;;;;;;;11.42;78.21;96394.34;1746220;81;25818;-87
2021/05/18 11:28:45;;;;;;;11.85;8.10;;;;;;;11.33;78.37;96390.39;1746287;82;25789;-87
2021/05/18 11:31:20;;;;;;;9.18;8.25;;;;;;;11.24;78.34;96393.98;1746284;81;25622;-86
2021/05/18 11:33:53;;;;;;;9.73;7.75;;;;;;;11.18;78.46;96395.78;1746303;82;27325;-87
2021/05/18 11:36:30;;;;;;;9.28;7.40;;;;;;;11.17;78.38;96394.13;1746190;82;25726;-86
2021/05/18 11:39:02;;;;;;;9.38;8.25;;;;;;;11.16;78.56;96400.59;1746089;82;25587;-88
2021/05/18 11:41:37;;;;;;;11.68;7.50;;;;;;;11.09;78.62;96412.61;1737844;81;34762;-86
2021/05/18 11:44:07;;;;;;;8.00;7.30;;;;;;;11.09;78.82;96408.02;1718922;81;25686;-87
2021/05/18 11:46:37;;;;;;;8.33;6.80;;;;;;;11.11;78.84;96405.88;1731834;82;27453;-86
2021/05/18 11:49:11;;;;;;;8.98;7.67;;;;;;;11.15;78.78;96404.35;1712198;82;25793;-88
2021/05/18 11:51:44;;;;;;;10.23;8.05;;;;;;;11.23;78.89;96399.66;1704296;82;26360;-86
2021/05/18 11:54:13;;;;;;;9.90;7.78;;;;;;;11.32;78.90;96404.43;1710395;82;25704;-86
2021/05/18 11:56:41;;;;;;;10.75;8.05;;;;;;;11.42;78.89;96395.70;1728057;82;25638;-87
2021/05/18 11:59:15;;;;;;;9.13;7.20;;;;;;;11.53;78.86;96402.41;1706292;83;28219;-89
2021/05/18 12:02:01;;;;;;;8.05;6.80;;;;;;;11.63;78.73;96405.00;1709432;82;25749;-89
2021/05/18 12:04:29;;;;;;;7.37;6.58;;;;;;;11.72;78.68;96405.71;1731812;82;25737;-90
2021/05/18 12:07:08;;;;;;;8.90;6.90;;;;;;;11.80;78.51;96405.38;1758795;81;25721;-84
2021/05/18 12:09:38;;;;;;;8.00;6.42;;;;;;;11.85;78.30;96410.85;1728450;81;25699;-89
2021/05/18 12:12:08;;;;;;;11.75;6.47;;;;;;;11.86;78.34;96408.44;1720774;83;27374;-90
2021/05/18 12:14:50;;;;;;;7.40;6.58;;;;;;;11.96;78.29;96405.62;1723699;82;25722;-91
2021/05/18 12:17:32;;;;;;;7.80;6.12;;;;;;;12.03;78.29;96409.00;1723140;83;25541;-87
2021/05/18 12:19:59;;;;;;;6.28;4.65;;;;;;;12.09;78.23;96404.77;1753279;81;25753;-90
2021/05/18 12:22:26;;;;;;;4.53;4.03;;;;;;;12.10;77.78;96413.70;1716339;82;25760;-87
2021/05/18 12:24:55;;;;;;;6.80;4.33;;;;;;;12.10;77.62;96415.06;1702975;82;27343;-87
2021/05/18 12:27:21;;;;;;;4.37;3.98;;;;;;;12.06;77.45;96418.81;1704394;82;25684;-87
2021/05/18 12:29:55;;;;;;;5.90;4.42;;;;;;;12.02;77.36;96417.65;1729569;82;25684;-83
2021/05/18 12:32:28;;;;;;;4.85;4.45;;;;;;;11.98;77.37;96410.25;1729472;82;25648;-88
2021/05/18 12:35:00;;;;;;;4.95;4.47;;;;;;;11.94;77.24;96415.88;1726977;82;26290;-89
2021/05/18 12:37:44;;;;;;;6.65;5.08;;;;;;;11.92;77.24;96416.66;1705976;82;46435;-87
2021/05/18 12:40:20;;;;;;;;;;;;;;;11.84;77.21;96418.67;1704493;82;25690;-85
2021/05/18 12:42:48;;;;;;;5.47;4.97;;;;;;;11.88;77.28;96418.48;1669584;82;25779;-88
2021/05/18 12:45:26;;;;;;;6.40;5.80;;;;;;;11.89;77.33;96424.19;1699503;82;26288;-88
2021/05/18 12:47:57;;;;;;;6.40;5.80;;;;;;;11.93;77.45;96425.06;1699586;82;26501;-89
2021/05/18 12:50:41;;;;;;;6.50;5.40;;;;;;;11.81;77.53;96412.95;1714651;82;27409;-87
2021/05/18 12:53:23;;;;;;;7.05;5.67;;;;;;;11.81;77.53;96412.95;1711680;82;25777;-88
2021/05/18 12:55:51;;;;;;;9.48;5.80;;;;;;;12.00;77.69;96427.06;1710735;82;26393;-88
2021/05/18 12:58:34;;;;;;;8.83;6.17;;;;;;;12.06;77.47;96432.87;1699555;82;26420;-88
2021/05/18 13:01:06;;;;;;;;;;;;;;;12.09;77.30;96432.36;1709512;82;25722;-88
2021/05/18 13:03:33;;;;;;;7.37;5.80;;;;;;;12.08;77.50;96426.13;1709012;82;27352;-88
2021/05/18 13:06:00;;;;;;;12.28;6.78;;;;;;;12.06;77.38;96428.81;1710712;82;25644;-88
2021/05/18 13:08:37;;;;;;;10.43;6.83;;;;;;;12.06;77.43;96426.92;1699692;82;25654;-89
2021/05/18 13:13:48;;;;;;;7.40;6.42;;;;;;;12.15;77.37;96428.69;1711227;81;26486;-89
2021/05/18 13:16:34;;;;;;;7.92;6.97;;;;;;;12.17;77.45;96431.44;1729980;81;27318;-91
2021/05/18 13:19:08;;;;;;;9.05;6.83;;;;;;;12.25;77.31;96434.27;1705122;82;25739;-90
2021/05/18 13:21:51;;;;;;;8.30;6.92;;;;;;;12.30;77.25;96431.66;1744443;81;26314;-87
2021/05/18 13:26:58;;;;;;;7.87;7.00;;;;;;;12.44;76.72;96423.47;1733557;81;25580;-89
2021/05/18 13:29:24;;;;;;;7.55;6.72;;;;;;;12.52;76.68;96424.43;1724297;81;27316;-89
2021/05/18 13:31:54;;;;;;;9.93;7.40;;;;;;;12.58;76.65;96420.72;1715905;81;25690;-89
2021/05/18 13:34:21;;;;;;;9.15;7.92;;;;;;;12.62;76.46;96421.87;1752982;81;25681;-88
2021/05/18 13:36:49;;;;;;;12.53;7.60;;;;;;;12.62;76.65;96427.28;1742749;81;25692;-86
2021/05/18 13:39:19;;;;;;;11.65;7.10;;;;;;;12.67;76.67;96423.03;1705071;82;25703;-87
2021/05/18 13:41:48;;;;;;;7.03;6.33;;;;;;;12.72;76.70;96423.91;1704920;82;27515;-88
2021/05/18 13:44:15;;;;;;;9.33;7.12;;;;;;;12.78;76.51;96424.81;1744335;81;25593;-88
2021/05/18 13:46:44;;;;;;;11.08;7.37;;;;;;;12.83;76.33;96427.58;1743124;81;25675;-87
2021/05/18 13:49:13;;;;;;;8.83;7.35;;;;;;;12.86;76.44;96422.48;1743184;81;25729;-87
2021/05/18 13:51:40;;;;;;;10.23;6.90;;;;;;;12.84;76.61;96426.51;1726994;81;25645;-87
2021/05/18 13:54:07;;;;;;;7.08;6.33;;;;;;;12.80;76.22;96426.73;1730546;81;28514;-88
2021/05/18 13:56:34;;;;;;;8.38;6.40;;;;;;;12.83;76.51;96423.51;1725715;81;25637;-88
2021/05/18 13:59:01;;;;;;;7.03;6.33;;;;;;;12.88;76.40;96420.89;1756163;81;25650;-89
2021/05/18 14:01:28;;;;;;;9.95;7.12;;;;;;;12.88;76.11;96424.95;1743475;82;26273;-88
2021/05/18 14:03:55;;;;;;;8.00;7.22;;;;;;;12.87;76.52;96421.95;1743490;82;25218;-89
2021/05/18 14:06:22;;;;;;;8.68;6.90;;;;;;;12.84;76.50;96414.32;1733839;81;27512;-89
2021/05/18 14:08:49;;;;;;;10.75;8.05;;;;;;;12.81;76.67;96420.23;1743364;82;25725;-88
2021/05/18 14:11:18;;;;;;;12.07;7.70;;;;;;;12.78;76.81;96417.51;1743327;82;25618;-89
2021/05/18 14:13:52;;;;;;;10.82;8.83;;;;;;;12.80;76.77;96421.33;1745016;81;25896;-89
2021/05/18 14:16:22;;;;;;;17.42;10.15;;;;;;;12.81;76.60;96425.64;1745179;81;25685;-88
2021/05/18 14:18:52;;;;;;;18.02;9.60;;;;;;;12.78;76.48;96431.05;1744934;81;27969;-89
2021/05/18 14:21:23;;;;;;;15.60;9.85;;;;;;;12.75;76.42;96430.72;1749008;81;25645;-88
2021/05/18 14:26:24;;;;;;;6.37;5.33;;;;;;;12.80;75.89;96435.66;1731789;82;25743;-87
2021/05/18 14:28:50;;;;;;;6.92;4.83;;;;;;;12.77;75.63;96448.89;1705202;83;25726;-91
2021/05/18 14:31:17;;;;;;;6.30;3.92;;;;;;;12.73;75.65;96451.27;1715789;82;27317;-93
2021/05/18 14:33:45;;;;;;;10.50;4.62;;;;;;;12.69;75.68;96459.59;1713844;82;25734;-90
2021/05/18 14:36:13;;;;;;;8.10;4.10;;;;;;;12.55;75.46;96461.02;1704833;82;25731;-90
2021/05/18 14:38:46;;;;;;;8.20;4.00;;;;;;;12.46;75.61;96466.00;1699726;82;25859;-88
2021/05/18 14:44:14;;;;;;;7.42;4.53;;;;;;;12.33;75.70;96449.26;1717095;82;28196;-88
2021/05/18 14:57:10;;;;;;;10.35;7.30;;;;;;;12.32;76.45;96450.36;1714007;82;27384;-90
2021/05/18 14:59:36;;;;;;;9.30;5.90;;;;;;;12.36;76.31;96446.89;1705512;82;25992;-90
2021/05/18 15:02:03;;;;;;;10.63;5.92;;;;;;;12.49;76.70;96442.51;1699861;82;25716;-91
2021/05/18 15:04:31;;;;;;;7.75;5.37;;;;;;;12.65;76.67;96440.05;1745127;81;25795;-89
2021/05/18 15:06:58;;;;;;;6.42;4.95;;;;;;;12.76;76.58;96431.00;1742083;81;25688;-92
2021/05/18 15:09:25;;;;;;;10.45;5.03;;;;;;;12.86;76.68;96440.09;1717635;83;27370;-91
2021/05/18 15:11:52;;;;;;;6.20;4.67;;;;;;;12.98;76.60;96430.50;1717285;82;25241;-91
2021/05/18 15:14:18;;;;;;;6.75;4.50;;;;;;;13.05;76.41;96430.31;1721724;82;26403;-89
2021/05/18 15:16:45;;;;;;;7.42;4.55;;;;;;;13.12;76.31;96426.37;1722758;82;26435;-91
2021/05/18 15:19:16;;;;;;;8.28;4.65;;;;;;;13.27;76.33;96425.25;1722892;82;25659;-89
2021/05/18 15:21:42;;;;;;;8.20;4.40;;;;;;;13.47;76.64;96434.69;1722312;82;26837;-88
2021/05/18 15:24:09;;;;;;;5.12;4.10;;;;;;;13.63;76.26;96441.94;1722888;82;25617;-90
2021/05/18 15:26:36;;;;;;;5.58;3.50;;;;;;;13.77;75.31;96436.38;1722835;82;25612;-89
2021/05/18 15:29:06;;;;;;;4.62;3.40;;;;;;;13.84;74.93;96435.66;1722747;82;25765;-88
2021/05/18 15:31:34;;;;;;;5.40;3.35;;;;;;;13.94;75.42;96431.69;1722897;82;25675;-91
2021/05/18 15:34:01;;;;;;;6.25;3.50;;;;;;;14.09;75.17;96435.09;1722791;82;27392;-88
2021/05/18 15:36:28;;;;;;;5.45;3.27;;;;;;;14.22;74.91;96431.14;1722801;82;25631;-91
2021/05/18 15:38:55;;;;;;;4.72;2.77;;;;;;;14.35;74.67;96425.29;1722818;82;25652;-90
2021/05/18 15:41:22;;;;;;;6.45;3.22;;;;;;;14.50;74.30;96426.77;1722673;82;25679;-91
2021/05/18 15:43:49;;;;;;;6.25;3.35;;;;;;;14.56;73.68;96432.54;1724416;82;25813;-90
2021/05/18 15:46:16;;;;;;;4.42;3.20;;;;;;;14.60;73.45;96420.09;1735989;82;27467;-91
2021/05/18 15:48:43;;;;;;;3.92;2.90;;;;;;;14.62;73.57;96423.88;1703741;83;26253;-90
2021/05/18 15:51:10;;;;;;;4.55;3.20;;;;;;;14.61;73.60;96421.70;1703412;82;25599;-89
2021/05/18 15:53:37;;;;;;;6.28;3.02;;;;;;;14.62;73.16;96421.98;1753241;81;25699;-90
2021/05/18 15:56:05;;;;;;;6.85;3.58;;;;;;;14.64;72.87;96432.05;1741929;81;25658;-88
2021/05/18 15:58:32;;;;;;;4.65;3.62;;;;;;;14.67;72.75;96433.43;1727651;81;27294;-89
2021/05/18 16:00:58;;;;;;;6.55;3.33;;;;;;;14.65;72.32;96439.66;1721643;82;25621;-89
2021/05/18 16:03:25;;;;;;;8.65;3.37;;;;;;;14.62;72.33;96435.56;1724344;82;25599;-89
2021/05/18 16:05:52;;;;;;;5.03;3.60;;;;;;;14.66;72.30;96431.25;1748446;81;25876;-89
2021/05/18 16:11:02;;;;;;;4.70;3.70;;;;;;;14.55;72.37;96437.69;1755253;81;27481;-88
2021/05/18 16:13:27;;;;;;;5.28;3.70;;;;;;;14.50;71.98;96441.70;1724259;81;25860;-90
2021/05/18 16:16:04;;;;;;;7.62;5.17;;;;;;;14.44;71.67;96439.23;1720743;83;26098;-91
2021/05/18 16:18:33;;;;;;;10.43;5.60;;;;;;;14.39;71.58;96445.39;1721549;82;25631;-91
2021/05/18 16:21:00;;;;;;;12.25;6.65;;;;;;;14.36;71.64;96441.32;1721260;82;25668;-89
2021/05/18 16:23:28;;;;;;;8.68;4.87;;;;;;;14.27;71.60;96448.81;1729934;81;27334;-87
2021/05/18 16:25:57;;;;;;;5.05;2.90;;;;;;;14.14;71.32;96444.63;1718284;81;25560;-88
2021/05/18 16:28:24;;;;;;;4.10;2.62;;;;;;;14.08;70.92;96444.84;1737890;81;25638;-89
2021/05/18 16:30:52;;;;;;;3.45;2.40;;;;;;;14.02;70.83;96451.56;1718055;81;26400;-90
2021/05/18 16:33:19;;;;;;;7.58;4.72;;;;;;;13.93;70.84;96448.22;1721869;81;25663;-91
2021/05/18 16:35:45;;;;;;;11.93;5.78;;;;;;;13.90;70.81;96458.21;1720135;81;27350;-92
2021/05/18 16:38:12;;;;;;;4.85;3.67;;;;;;;13.85;70.76;96461.71;1718106;81;25587;-94
2021/05/18 16:40:39;;;;;;;5.90;4.50;;;;;;;13.84;70.75;96466.85;1729082;81;25716;-89
2021/05/18 16:43:07;;;;;;;5.40;3.10;;;;;;;13.79;70.59;96470.03;1708544;82;25711;-90
2021/05/18 16:45:35;;;;;;;8.63;3.35;;;;;;;13.73;70.57;96475.95;1708742;82;25727;-90
2021/05/18 16:48:04;;;;;;;5.35;2.55;;;;;;;13.60;70.31;96462.23;1680748;83;25908;-89
2021/05/18 16:50:32;;;;;;;4.00;2.60;;;;;;;13.46;70.09;96465.04;1707812;82;25739;-91